No data was retrieved for https://query.yahooapis.com/v1/public/yql?q=select+%2A+from+weather.forecast+where+woeid%3D973505&format=xml&u=c


Lesvos Island / Mitilini / Pligoni / SV8DTD



Thunder radar more information blitzortung!


Rain radar more information rain snow radar


Visit our other weather sites:

Template documentation
and downloads

And another site



There is a communication problem. Go directly to the Meteoalarm site : www.meteoalarm.eu and check the Weather-warnings there .

Nearby METAR Reports

   
EHVK - Volkel Rnlafb, Netherlands
Distance from station: SW 18 km
Updated: Sun-Dec-2022 09:55
Mist, Overcast  
Mist, Overcast  
   Wind: ENE 18.5 km/h
Wind: ENE 18.5 km/h
Temperature: 1°C
Wind Chill: -4°C
Dew Point: -1°C
Humidity: 87%
Barometer: 1017 hPa
Clouds: Overcast
Visibility: 7 km
Cloud details: Partly Cloudy 1100 ft,
Overcast 1300 ft
EHVK 040755Z AUTO 06010KT 7000 BR SCT011 OVC013 01/M01 Q1017 GRN
EDLV - Niederrhein, Germany
Distance from station: SE 25 km
Updated: Sun-Dec-2022 09:50
Overcast  
Overcast  
   Wind: ENE 11.1 km/h
Wind: ENE 11.1 km/h
Temperature: 1°C
Wind Chill: -2°C
Dew Point: -1°C
Humidity: 87%
Barometer: 1017 hPa
Clouds: Overcast
Visibility: 9 km
Cloud details: Partly Cloudy 1300 ft,
Overcast 2700 ft
EDLV 040750Z 06006KT 010V120 9000 SCT013 OVC027 01/M01 Q1017
EHDL - Deelen Rnlafb, Netherlands
Distance from station: N 35 km
Updated: Sun-Dec-2022 09:55
Mist, Overcast  
Mist, Overcast  
   Wind: ENE 16.7 km/h
Wind: ENE 16.7 km/h
Temperature: 0°C
Wind Chill: -4°C
Dew Point: -2°C
Humidity: 87%
Barometer: 1018 hPa
Clouds: Overcast
Visibility: 6 km
Cloud details: Mostly Cloudy 800 ft,
Overcast 1000 ft
EHDL 040755Z AUTO 06009KT 350V140 6000 BR BKN008 OVC010 00/M02 Q1018 GRN
EHEH - Eindhoven Rnlafb, Netherlands
Distance from station: SW 48 km
Updated: Sun-Dec-2022 09:55
Mist, Overcast  
Mist, Overcast  
   Wind: ENE 16.7 km/h
Wind: ENE 16.7 km/h
Temperature: 1°C
Wind Chill: -3°C
Dew Point: -1°C
Humidity: 87%
Barometer: 1017 hPa
Clouds: Overcast
Visibility: 7 km
Cloud details: Mostly Cloudy 1000 ft,
Overcast 1300 ft
EHEH 040755Z AUTO 06009KT 030V100 7000 BR BKN010 OVC013 01/M01 Q1017 GRN NOSIG
EHGR - Gilze-Rijen Rnla, Netherlands
Distance from station: WSW 70 km
Updated: Sun-Dec-2022 09:55
Mist, Overcast  
Mist, Overcast  
   Wind: ENE 16.7 km/h
Wind: ENE 16.7 km/h
Temperature: 1°C
Wind Chill: -3°C
Dew Point: -1°C
Humidity: 87%
Barometer: 1017 hPa
Clouds: Overcast
Visibility: 5 km
Cloud details: Overcast 1000 ft
EHGR 040755Z AUTO 06009KT 360V110 5000 BR OVC010 01/M01 Q1017 GRN
EBBL - Kleine-Brogel(Ba, Belgium
Distance from station: SSW 71 km
Updated: Sun-Dec-2022 09:55
Overcast  
Overcast  
   Wind: ENE 14.8 km/h
Wind: ENE 14.8 km/h
Temperature: 1°C
Wind Chill: -3°C
Dew Point: -1°C
Humidity: 87%
Barometer: 1016 hPa
Clouds: Overcast
Visibility: 6 km
Cloud details: Overcast 1700 ft
EBBL 040755Z AUTO 06008KT 6000 OVC017/// 01/M01 Q1016 WHT

Script developed by  Saratoga-weather.org Adapted for the template by  Weerstation Leuven

You find our weather info also at:

European Weather Network

Citizen Weather Observer Program (CWOP)

Equipment we use:

Weather-station
Davis VP2

Weather-program
Meteohub

Davis VP2

Meteohub